Time;durP1;ratioP1;P1;durP2;ratioP2;P2;SDS_P1;SDS_P2;PMS_P1;PMS_P2;Temp;Humidity;BMP_temperature;BMP_pressure;BME280_temperature;BME280_humidity;BME280_pressure;Samples;Min_cycle;Max_cycle;Signal;HPM_P1;HPM_P2
2022/06/20 00:00:04;;;;;;;127.25;115.88;;;15.80;80.10;;;;;;5013707;28;20065;-77
2022/06/20 00:02:31;;;;;;;128.60;116.90;;;15.80;80.50;;;;;;5013173;28;20076;-77
2022/06/20 00:05:02;;;;;;;126.30;114.72;;;15.80;80.80;;;;;;5013434;28;20140;-77
2022/06/20 00:07:29;;;;;;;128.73;117.05;;;15.80;81.10;;;;;;4996738;28;20050;-77
2022/06/20 00:09:57;;;;;;;128.40;116.75;;;15.70;81.20;;;;;;5014267;28;20055;-77
2022/06/20 00:12:26;;;;;;;128.82;117.15;;;15.60;81.60;;;;;;4996843;28;20050;-77
2022/06/20 00:14:57;;;;;;;127.53;115.90;;;15.60;81.70;;;;;;4996783;28;20129;-77
2022/06/20 00:17:24;;;;;;;128.48;116.95;;;15.60;81.90;;;;;;5012323;28;20506;-77
2022/06/20 00:19:51;;;;;;;127.07;115.60;;;15.50;81.90;;;;;;5029332;28;20078;-77
2022/06/20 00:22:18;;;;;;;127.55;116.05;;;15.50;82.00;;;;;;4996205;28;20058;-77
2022/06/20 00:24:45;;;;;;;127.15;115.43;;;15.50;82.10;;;;;;5013961;28;20149;-77
2022/06/20 00:27:13;;;;;;;129.73;118.00;;;15.50;82.20;;;;;;5013731;28;20053;-77
2022/06/20 00:29:42;;;;;;;126.05;114.65;;;15.50;82.50;;;;;;4995938;28;20461;-77
2022/06/20 00:32:11;;;;;;;126.78;115.30;;;15.50;82.40;;;;;;5029240;28;20491;-77
2022/06/20 00:34:38;;;;;;;126.82;115.05;;;15.50;82.40;;;;;;5012772;28;20101;-77
2022/06/20 00:37:06;;;;;;;128.77;117.43;;;15.50;82.50;;;;;;5029123;28;20058;-77
2022/06/20 00:39:33;;;;;;;126.55;114.75;;;15.50;82.50;;;;;;5012515;28;20057;-78
2022/06/20 00:42:01;;;;;;;126.15;114.60;;;15.50;82.60;;;;;;5028889;28;20437;-77
2022/06/20 00:44:36;;;;;;;126.80;115.50;;;15.50;82.60;;;;;;5013789;28;20057;-77
2022/06/20 00:47:07;;;;;;;129.93;118.07;;;15.50;82.70;;;;;;5013954;28;20081;-77
2022/06/20 00:49:38;;;;;;;126.55;115.07;;;15.50;82.90;;;;;;5012653;28;20045;-77
2022/06/20 00:52:13;;;;;;;126.47;114.90;;;15.40;83.40;;;;;;5028605;28;20054;-77
2022/06/20 00:54:52;;;;;;;126.97;115.40;;;15.40;83.90;;;;;;4995616;28;20053;-77
2022/06/20 00:57:25;;;;;;;127.60;115.90;;;15.30;84.20;;;;;;5028684;28;20134;-77
2022/06/20 01:00:00;;;;;;;127.38;115.50;;;15.30;84.80;;;;;;5012067;28;20524;-77
2022/06/20 01:02:32;;;;;;;127.15;115.50;;;15.20;85.10;;;;;;5013834;28;20137;-77
2022/06/20 01:05:01;;;;;;;128.65;116.70;;;15.20;85.40;;;;;;5013564;28;20125;-77
2022/06/20 01:07:34;;;;;;;127.00;115.15;;;15.20;85.80;;;;;;5028807;28;20056;-77
2022/06/20 01:10:02;;;;;;;128.45;116.75;;;15.20;86.00;;;;;;5011919;28;20061;-77
2022/06/20 01:12:32;;;;;;;127.38;115.85;;;15.20;86.50;;;;;;5012089;28;20050;-77
2022/06/20 01:15:00;;;;;;;128.23;116.20;;;15.10;86.50;;;;;;5012421;28;20060;-77
2022/06/20 01:17:35;;;;;;;128.38;116.18;;;15.10;86.60;;;;;;5028107;28;20117;-77
2022/06/20 01:20:05;;;;;;;127.18;115.45;;;15.10;87.00;;;;;;5012050;28;20050;-77
2022/06/20 01:22:46;;;;;;;127.15;115.47;;;15.10;87.30;;;;;;5013951;28;20141;-77
2022/06/20 01:25:23;;;;;;;128.02;115.97;;;15.10;87.00;;;;;;5013434;28;20059;-77
2022/06/20 01:27:53;;;;;;;126.13;114.38;;;15.10;87.10;;;;;;5011869;28;20050;-77
2022/06/20 01:30:24;;;;;;;126.68;115.07;;;15.10;87.30;;;;;;5011847;28;20056;-77
2022/06/20 01:32:50;;;;;;;127.07;115.57;;;15.00;87.50;;;;;;5011939;28;20062;-77
2022/06/20 01:38:02;;;;;;;125.95;114.28;;;15.00;88.00;;;;;;5010454;28;20500;-77
2022/06/20 01:40:29;;;;;;;126.35;114.88;;;15.00;88.30;;;;;;4995058;28;20112;-77
2022/06/20 01:42:57;;;;;;;126.50;114.70;;;14.90;88.40;;;;;;5011174;28;20424;-78
2022/06/20 01:48:13;;;;;;;126.80;115.13;;;14.90;88.90;;;;;;5012837;28;20050;-77
2022/06/20 01:50:42;;;;;;;126.22;114.60;;;14.90;89.20;;;;;;5027929;28;20136;-77
2022/06/20 01:53:11;;;;;;;126.03;114.32;;;14.90;89.40;;;;;;5011718;28;20496;-77
2022/06/20 01:55:41;;;;;;;126.45;114.82;;;14.90;89.60;;;;;;5028117;28;20050;-77
2022/06/20 01:58:15;;;;;;;127.63;116.03;;;14.80;89.70;;;;;;4994620;28;20060;-77
2022/06/20 02:00:42;;;;;;;125.93;114.13;;;14.80;90.00;;;;;;5010918;28;20057;-77
2022/06/20 02:03:13;;;;;;;127.20;115.20;;;14.80;90.00;;;;;;5027897;28;20081;-77
2022/06/20 02:05:43;;;;;;;125.68;114.18;;;14.70;90.10;;;;;;5000920;28;20058;-77
2022/06/20 02:08:10;;;;;;;127.65;115.57;;;14.70;90.20;;;;;;5034136;28;20101;-77
2022/06/20 02:10:44;;;;;;;125.53;113.93;;;14.70;90.30;;;;;;5018946;28;20089;-77
2022/06/20 02:13:14;;;;;;;126.93;115.32;;;14.70;90.40;;;;;;5017317;28;20105;-77
2022/06/20 02:15:43;;;;;;;126.38;114.72;;;14.70;90.50;;;;;;5001441;28;20046;-77
2022/06/20 02:18:10;;;;;;;125.85;114.15;;;14.60;90.50;;;;;;5033934;28;20647;-77
2022/06/20 02:20:45;;;;;;;125.97;114.30;;;14.60;90.60;;;;;;5017672;28;20042;-77
2022/06/20 02:23:16;;;;;;;125.43;113.68;;;14.60;90.60;;;;;;5034034;28;20086;-77
2022/06/20 02:25:44;;;;;;;127.07;115.38;;;14.50;90.70;;;;;;5017433;28;20050;-77
2022/06/20 02:28:17;;;;;;;126.45;114.68;;;14.50;90.70;;;;;;5033944;28;20054;-77
2022/06/20 02:30:44;;;;;;;123.95;112.55;;;14.50;90.80;;;;;;5018854;28;20081;-77
2022/06/20 02:33:14;;;;;;;125.38;113.53;;;14.50;90.80;;;;;;5000881;28;20061;-77
2022/06/20 02:35:43;;;;;;;126.55;114.53;;;14.40;90.80;;;;;;5017635;28;20141;-78
2022/06/20 02:38:10;;;;;;;125.68;113.95;;;14.40;90.80;;;;;;5033454;28;20164;-77
2022/06/20 02:40:42;;;;;;;125.18;113.22;;;14.40;90.80;;;;;;5018856;28;20052;-77
2022/06/20 02:43:15;;;;;;;125.80;113.88;;;14.30;90.80;;;;;;5016968;28;20136;-77
2022/06/20 02:45:44;;;;;;;124.05;112.22;;;14.30;90.90;;;;;;5018746;28;20054;-77
2022/06/20 02:48:12;;;;;;;125.72;114.07;;;14.30;90.90;;;;;;5033296;28;20488;-77
2022/06/20 02:50:44;;;;;;;125.90;113.90;;;14.30;90.90;;;;;;5033909;28;20134;-77
2022/06/20 02:53:19;;;;;;;126.72;114.85;;;14.30;90.90;;;;;;5000736;28;20050;-77
2022/06/20 02:55:47;;;;;;;126.30;114.47;;;14.20;91.00;;;;;;5033679;28;20527;-77
2022/06/20 02:58:20;;;;;;;127.00;114.93;;;14.20;91.00;;;;;;5016554;28;20137;-77
2022/06/20 03:00:53;;;;;;;127.20;115.20;;;14.20;91.10;;;;;;5000820;28;20074;-76
2022/06/20 03:03:27;;;;;;;128.10;115.57;;;14.10;91.10;;;;;;5019152;28;20116;-77
2022/06/20 03:05:54;;;;;;;128.23;115.80;;;14.10;91.20;;;;;;5034067;28;20129;-77
2022/06/20 03:08:22;;;;;;;129.52;117.13;;;14.10;91.20;;;;;;5016752;28;20046;-77
2022/06/20 03:10:52;;;;;;;128.23;115.82;;;14.00;91.30;;;;;;5033809;28;20054;-77
2022/06/20 03:13:21;;;;;;;128.10;115.72;;;14.00;91.40;;;;;;5018341;28;20054;-76
2022/06/20 03:15:50;;;;;;;127.65;115.45;;;14.00;91.60;;;;;;5031747;28;20717;-76
2022/06/20 03:18:19;;;;;;;128.38;115.75;;;14.00;91.60;;;;;;5014063;28;20064;-76
2022/06/20 03:20:47;;;;;;;127.80;115.68;;;14.00;91.60;;;;;;5030135;28;20539;-76
2022/06/20 03:23:20;;;;;;;128.35;115.90;;;14.00;91.60;;;;;;5013590;28;20057;-76
2022/06/20 03:25:47;;;;;;;128.20;115.90;;;14.00;91.60;;;;;;5015318;28;20065;-76
2022/06/20 03:28:17;;;;;;;128.82;116.47;;;14.00;91.60;;;;;;5013795;28;20053;-77
2022/06/20 03:30:46;;;;;;;129.27;116.72;;;14.00;91.60;;;;;;5015280;28;20117;-77
2022/06/20 03:33:16;;;;;;;126.15;114.25;;;13.90;91.50;;;;;;5013911;28;20058;-77
2022/06/20 03:35:47;;;;;;;128.45;116.30;;;14.00;91.50;;;;;;5030038;28;20065;-77
2022/06/20 03:38:16;;;;;;;126.78;114.75;;;14.00;91.40;;;;;;5014673;28;20133;-77
2022/06/20 03:40:44;;;;;;;125.63;113.72;;;14.00;91.40;;;;;;4997097;28;20487;-76
2022/06/20 03:43:14;;;;;;;127.40;115.25;;;14.00;91.50;;;;;;5014741;28;20077;-76
2022/06/20 03:45:51;;;;;;;125.32;113.32;;;13.90;91.50;;;;;;4996893;28;20181;-76
2022/06/20 03:48:21;;;;;;;125.15;113.40;;;13.90;91.40;;;;;;5013461;28;20567;-77
2022/06/20 03:50:53;;;;;;;124.93;113.10;;;13.90;91.40;;;;;;5030215;28;20634;-77
2022/06/20 03:53:24;;;;;;;126.70;114.82;;;13.90;91.40;;;;;;5013457;28;20535;-77
2022/06/20 03:55:57;;;;;;;127.32;114.90;;;14.00;91.50;;;;;;5013414;28;20121;-76
2022/06/20 03:58:29;;;;;;;126.20;114.13;;;14.00;91.40;;;;;;5012949;28;20550;-76
2022/06/20 04:01:03;;;;;;;126.95;115.03;;;14.00;91.20;;;;;;5014655;28;20058;-76
2022/06/20 04:03:35;;;;;;;128.80;116.30;;;14.00;91.20;;;;;;4996776;28;20050;-76
2022/06/20 04:06:07;;;;;;;126.70;114.70;;;14.00;91.10;;;;;;5030084;28;20092;-76
2022/06/20 04:11:34;;;;;;;126.00;114.07;;;14.00;91.30;;;;;;5029442;28;20050;-76
2022/06/20 04:14:07;;;;;;;126.35;114.35;;;14.00;91.30;;;;;;5013371;28;20516;-76
2022/06/20 04:16:40;;;;;;;125.35;113.47;;;14.00;91.40;;;;;;5029300;28;20520;-77
2022/06/20 04:19:13;;;;;;;123.28;111.70;;;14.00;91.30;;;;;;5012959;28;20062;-76
2022/06/20 04:21:46;;;;;;;124.50;112.70;;;14.00;91.30;;;;;;5012779;28;20121;-76
2022/06/20 04:24:20;;;;;;;124.68;112.88;;;14.00;91.30;;;;;;5012553;28;20050;-76
2022/06/20 04:26:51;;;;;;;125.85;114.22;;;14.00;91.20;;;;;;5012559;28;20559;-76
2022/06/20 04:29:23;;;;;;;123.38;111.72;;;14.00;91.10;;;;;;5011734;28;20449;-76
2022/06/20 04:31:58;;;;;;;122.85;111.13;;;14.00;91.20;;;;;;5012858;28;20061;-76
2022/06/20 04:34:31;;;;;;;122.07;110.60;;;14.00;91.30;;;;;;5014320;28;20062;-77
2022/06/20 04:37:01;;;;;;;126.40;114.50;;;14.00;91.60;;;;;;5013962;28;20156;-76
2022/06/20 04:39:37;;;;;;;122.32;110.53;;;14.00;91.60;;;;;;5012831;28;20441;-76
2022/06/20 04:42:28;;;;;;;122.88;111.25;;;14.00;91.50;;;;;;5012609;28;20078;-77
2022/06/20 04:44:59;;;;;;;123.45;111.47;;;14.00;91.80;;;;;;4995645;28;20077;-76
2022/06/20 04:47:39;;;;;;;122.75;110.93;;;14.00;92.00;;;;;;5013935;28;20129;-76
2022/06/20 04:50:07;;;;;;;123.65;111.85;;;14.00;92.10;;;;;;5013904;28;20133;-76
2022/06/20 04:52:34;;;;;;;122.82;111.05;;;14.00;92.20;;;;;;5028427;28;20459;-76
2022/06/20 04:55:01;;;;;;;122.88;111.32;;;14.00;91.90;;;;;;5012460;28;20516;-76
2022/06/20 04:57:32;;;;;;;121.28;109.80;;;14.00;91.90;;;;;;4994129;28;20383;-76
2022/06/20 05:00:04;;;;;;;122.43;110.72;;;14.00;92.00;;;;;;5010975;28;20160;-76
2022/06/20 05:02:32;;;;;;;123.88;112.22;;;14.00;92.00;;;;;;5007309;28;20050;-76
2022/06/20 05:05:04;;;;;;;122.80;111.00;;;14.00;92.10;;;;;;5007996;28;20046;-76
2022/06/20 05:07:35;;;;;;;122.50;111.10;;;14.10;92.20;;;;;;5007995;28;20540;-77
2022/06/20 05:10:09;;;;;;;124.97;113.13;;;14.10;92.10;;;;;;5009516;28;20058;-77
2022/06/20 05:12:42;;;;;;;126.03;113.93;;;14.10;92.30;;;;;;5009628;28;20144;-76
2022/06/20 05:15:15;;;;;;;123.13;111.22;;;14.10;92.30;;;;;;4991492;28;20058;-76
2022/06/20 05:17:46;;;;;;;121.45;109.47;;;14.10;92.20;;;;;;5009836;28;20077;-76
2022/06/20 05:20:21;;;;;;;123.18;111.75;;;14.10;92.10;;;;;;5003111;28;20086;-76
2022/06/20 05:22:53;;;;;;;121.47;109.75;;;14.10;92.30;;;;;;5003596;28;20081;-76
2022/06/20 05:25:24;;;;;;;121.45;109.70;;;14.10;92.30;;;;;;5004098;28;20055;-76
2022/06/20 05:27:56;;;;;;;124.07;112.07;;;14.20;92.40;;;;;;4999138;28;20054;-76
2022/06/20 05:30:27;;;;;;;122.30;110.68;;;14.20;92.50;;;;;;4993129;28;20054;-76
2022/06/20 05:33:00;;;;;;;123.47;111.68;;;14.20;92.60;;;;;;4993345;28;20101;-78
2022/06/20 05:35:33;;;;;;;124.90;113.22;;;14.20;92.50;;;;;;5000928;28;20054;-77
2022/06/20 05:38:03;;;;;;;123.13;111.13;;;14.30;92.60;;;;;;5008240;28;20069;-78
2022/06/20 05:40:34;;;;;;;124.63;112.80;;;14.30;92.50;;;;;;4999228;28;20105;-78
2022/06/20 05:43:01;;;;;;;124.32;112.20;;;14.30;92.80;;;;;;5000533;28;20066;-77
2022/06/20 05:45:31;;;;;;;122.53;111.07;;;14.30;92.50;;;;;;5009493;28;20053;-77
2022/06/20 05:48:03;;;;;;;124.53;112.68;;;14.30;92.70;;;;;;5008808;28;20121;-78
2022/06/20 05:50:40;;;;;;;123.00;111.10;;;14.40;93.00;;;;;;5010486;28;20539;-77
2022/06/20 05:53:13;;;;;;;123.07;111.32;;;14.40;93.00;;;;;;4977913;28;20051;-77
2022/06/20 05:55:44;;;;;;;123.22;111.43;;;14.40;92.90;;;;;;4991929;28;20055;-77
2022/06/20 05:58:17;;;;;;;122.95;111.38;;;14.50;92.70;;;;;;4977463;28;20046;-77
2022/06/20 06:00:46;;;;;;;124.13;112.07;;;14.50;92.70;;;;;;4991699;28;20867;-77
2022/06/20 06:03:19;;;;;;;124.40;112.32;;;14.50;92.90;;;;;;5009267;28;20055;-76
2022/06/20 06:05:50;;;;;;;125.03;112.80;;;14.50;92.90;;;;;;5009359;28;20589;-77
2022/06/20 06:08:24;;;;;;;122.50;110.63;;;14.60;93.00;;;;;;4999896;28;20125;-76
2022/06/20 06:10:57;;;;;;;122.38;110.38;;;14.60;92.70;;;;;;5009096;28;20050;-76
2022/06/20 06:13:33;;;;;;;123.72;111.60;;;14.60;92.60;;;;;;5007317;28;20627;-76
2022/06/20 06:18:58;;;;;;;122.57;110.72;;;14.70;92.60;;;;;;5001276;28;20056;-75
2022/06/20 06:21:27;;;;;;;124.28;112.07;;;14.70;92.60;;;;;;5005574;28;20157;-76
2022/06/20 06:23:54;;;;;;;125.20;113.07;;;14.70;92.40;;;;;;5005242;28;20066;-75
2022/06/20 06:26:21;;;;;;;124.35;112.15;;;14.70;92.30;;;;;;5007465;28;20054;-75
2022/06/20 06:28:50;;;;;;;123.80;112.00;;;14.80;92.30;;;;;;5007087;28;20051;-75
2022/06/20 06:31:22;;;;;;;124.40;112.25;;;14.80;92.10;;;;;;4997807;28;20054;-76
2022/06/20 06:33:56;;;;;;;126.13;113.75;;;14.80;91.90;;;;;;5007017;28;20588;-76
2022/06/20 06:36:30;;;;;;;126.85;114.47;;;14.90;91.30;;;;;;4991173;28;20146;-77
2022/06/20 06:39:04;;;;;;;125.38;113.43;;;14.90;91.00;;;;;;5017924;28;20046;-81
2022/06/20 06:41:36;;;;;;;125.35;113.22;;;15.00;90.60;;;;;;4996555;28;20047;-81
2022/06/20 06:44:14;;;;;;;125.88;113.55;;;15.00;90.60;;;;;;4984916;28;20051;-81
2022/06/20 06:46:45;;;;;;;128.38;116.07;;;15.10;90.80;;;;;;5006663;28;20129;-82
2022/06/20 06:49:26;;;;;;;130.15;117.85;;;15.10;91.00;;;;;;5006961;28;20525;-81
2022/06/20 06:51:59;;;;;;;129.68;117.25;;;15.10;90.80;;;;;;5017783;28;20098;-81
2022/06/20 06:54:31;;;;;;;129.52;117.13;;;15.10;90.80;;;;;;4999806;28;20054;-81
2022/06/20 06:57:03;;;;;;;128.05;115.72;;;15.10;90.90;;;;;;5001153;28;20133;-81
2022/06/20 06:59:36;;;;;;;127.32;115.07;;;15.20;90.50;;;;;;4991163;28;20059;-78
2022/06/20 07:02:11;;;;;;;126.38;114.10;;;15.20;90.40;;;;;;5022513;28;20145;-80
2022/06/20 07:04:44;;;;;;;124.90;112.95;;;15.20;90.30;;;;;;5017784;28;20055;-80
2022/06/20 07:07:16;;;;;;;126.75;114.63;;;15.20;89.80;;;;;;4993806;28;20114;-80
2022/06/20 07:09:46;;;;;;;126.18;114.13;;;15.30;89.70;;;;;;5009344;28;20054;-80
2022/06/20 07:12:17;;;;;;;125.57;113.88;;;15.30;89.40;;;;;;5007521;28;20133;-81
2022/06/20 07:14:49;;;;;;;127.13;114.78;;;15.30;89.00;;;;;;4985862;28;20062;-84
2022/06/20 07:17:23;;;;;;;130.02;117.72;;;15.40;87.70;;;;;;4992319;28;20170;-81
2022/06/20 07:19:52;;;;;;;128.30;116.00;;;15.40;87.50;;;;;;4987794;28;20058;-80
2022/06/20 07:22:22;;;;;;;128.55;116.30;;;15.30;87.60;;;;;;5006212;28;20133;-80
2022/06/20 07:24:52;;;;;;;125.65;113.75;;;15.40;88.50;;;;;;5010411;28;21072;-79
2022/06/20 07:27:27;;;;;;;127.20;115.32;;;15.40;88.10;;;;;;5011399;28;20061;-79
2022/06/20 07:29:58;;;;;;;125.28;113.38;;;15.40;87.40;;;;;;5012938;28;20050;-81
2022/06/20 07:32:32;;;;;;;127.72;115.50;;;15.50;86.70;;;;;;5010862;28;20141;-80
2022/06/20 07:35:07;;;;;;;125.30;113.28;;;15.60;86.60;;;;;;5008287;28;20054;-80
2022/06/20 07:37:42;;;;;;;126.28;114.10;;;15.60;84.70;;;;;;5012688;28;20048;-79
2022/06/20 07:40:17;;;;;;;124.80;112.65;;;15.60;83.90;;;;;;5012052;28;20065;-79
2022/06/20 07:42:49;;;;;;;124.50;112.65;;;15.60;84.50;;;;;;5013083;28;20047;-79
2022/06/20 07:45:20;;;;;;;127.20;115.20;;;15.60;85.50;;;;;;5012751;28;20054;-79
2022/06/20 07:47:53;;;;;;;130.35;118.22;;;15.60;85.90;;;;;;5011414;28;20050;-80
2022/06/20 07:50:25;;;;;;;128.38;116.13;;;15.70;86.80;;;;;;5010908;28;20054;-80
2022/06/20 07:52:57;;;;;;;129.90;117.82;;;15.70;86.30;;;;;;5011409;28;20046;-80
2022/06/20 07:55:29;;;;;;;127.28;115.43;;;15.80;85.80;;;;;;5011418;28;20564;-80
2022/06/20 07:58:00;;;;;;;128.52;116.47;;;15.90;84.10;;;;;;4994713;28;20049;-79
2022/06/20 08:00:31;;;;;;;126.68;114.72;;;15.90;84.20;;;;;;5012521;28;20524;-80
2022/06/20 08:03:03;;;;;;;124.57;113.10;;;16.00;84.20;;;;;;4996496;28;20054;-80
2022/06/20 08:05:39;;;;;;;127.32;115.43;;;16.00;83.80;;;;;;4996315;28;20054;-80
2022/06/20 08:08:15;;;;;;;127.50;115.40;;;16.00;83.60;;;;;;5012094;28;20597;-80
2022/06/20 08:10:48;;;;;;;127.43;115.45;;;16.10;82.90;;;;;;5012571;28;20058;-85
2022/06/20 08:13:19;;;;;;;130.73;118.70;;;16.20;81.20;;;;;;5012953;28;20047;-81
2022/06/20 08:15:53;;;;;;;128.45;115.93;;;16.20;81.10;;;;;;4996279;28;20065;-78
2022/06/20 08:18:20;;;;;;;127.90;115.72;;;16.20;81.50;;;;;;4995735;28;20133;-81
2022/06/20 08:20:54;;;;;;;129.15;116.72;;;16.30;82.30;;;;;;5012136;28;20145;-80
2022/06/20 08:23:24;;;;;;;130.20;117.75;;;16.20;81.80;;;;;;5012585;28;20061;-80
2022/06/20 08:25:55;;;;;;;130.13;118.13;;;16.30;81.20;;;;;;5012472;28;20061;-79
2022/06/20 08:28:24;;;;;;;128.82;116.95;;;16.30;82.20;;;;;;5012206;28;20052;-80
2022/06/20 08:30:53;;;;;;;128.25;115.93;;;16.40;82.40;;;;;;5012439;28;20054;-81
2022/06/20 08:33:26;;;;;;;126.78;115.07;;;16.50;82.40;;;;;;5012821;28;20409;-81
2022/06/20 08:36:00;;;;;;;130.70;119.10;;;16.60;78.50;;;;;;5012922;28;20060;-81
2022/06/20 08:38:33;;;;;;;132.15;120.25;;;16.60;76.20;;;;;;4996052;28;20144;-82
2022/06/20 08:41:37;;;;;;;132.45;120.85;;;16.60;77.60;;;;;;5012437;28;20054;-82
2022/06/20 08:44:43;;;;;;;124.75;113.28;;;16.60;78.10;;;;;;4997125;28;20148;-80
2022/06/20 08:47:43;;;;;;;129.02;117.03;;;16.70;77.60;;;;;;5011479;28;20078;-80
2022/06/20 08:50:27;;;;;;;129.10;117.25;;;16.70;77.60;;;;;;5008614;28;20054;-79
2022/06/20 08:53:31;;;;;;;128.27;116.65;;;16.80;78.30;;;;;;5011076;28;20057;-81
2022/06/20 08:56:16;;;;;;;130.93;118.88;;;16.80;80.50;;;;;;5011182;28;20046;-80
2022/06/20 08:58:56;;;;;;;131.35;119.47;;;16.90;80.00;;;;;;5011337;28;20077;-80
2022/06/20 09:01:31;;;;;;;131.25;119.43;;;16.90;78.60;;;;;;5010128;28;20506;-80
2022/06/20 09:04:12;;;;;;;;;;;17.00;77.60;;;;;;5011774;28;20054;-80
2022/06/20 09:07:11;;;;;;;126.47;114.95;;;17.00;78.30;;;;;;4995378;28;20024;-80
2022/06/20 09:10:34;;;;;;;128.07;116.28;;;17.00;79.00;;;;;;4967178;28;20473;-80
2022/06/20 09:13:29;;;;;;;128.00;116.22;;;17.10;77.60;;;;;;4951983;28;20542;-79
2022/06/20 09:16:04;;;;;;;129.60;118.30;;;17.10;74.20;;;;;;5006886;28;20513;-81
2022/06/20 09:18:44;;;;;;;132.57;121.20;;;17.10;75.00;;;;;;5003815;28;20101;-80
2022/06/20 09:21:21;;;;;;;130.00;118.40;;;17.10;75.00;;;;;;5004423;28;20063;-80
2022/06/20 09:24:17;;;;;;;129.07;117.72;;;17.20;75.10;;;;;;5005506;28;20138;-80
2022/06/20 09:26:54;;;;;;;127.10;115.90;;;17.20;74.40;;;;;;4987364;28;20602;-79
2022/06/20 09:29:41;;;;;;;131.18;119.57;;;17.20;75.70;;;;;;5010328;28;20093;-80
2022/06/20 09:32:29;;;;;;;128.10;116.68;;;17.30;75.20;;;;;;5011631;28;20137;-80
2022/06/20 09:35:27;;;;;;;133.98;122.50;;;17.30;74.60;;;;;;5011170;28;20061;-79
2022/06/20 09:38:22;;;;;;;128.43;117.30;;;17.40;75.60;;;;;;5010688;28;20105;-81
2022/06/20 09:40:55;;;;;;;130.88;119.45;;;17.40;73.00;;;;;;4994898;28;20513;-81
2022/06/20 09:43:35;;;;;;;135.75;124.47;;;17.50;72.00;;;;;;4993307;28;20551;-81
2022/06/20 09:46:13;;;;;;;130.75;118.82;;;17.50;72.00;;;;;;5009600;28;20074;-81
2022/06/20 09:48:48;;;;;;;128.63;117.18;;;17.50;71.40;;;;;;5009651;28;20129;-80
2022/06/20 09:51:22;;;;;;;127.60;115.53;;;17.50;72.90;;;;;;4993765;28;20046;-81
2022/06/20 09:54:01;;;;;;;129.23;117.57;;;17.50;72.40;;;;;;4993433;28;20050;-81
2022/06/20 09:56:36;;;;;;;127.30;116.10;;;17.60;72.10;;;;;;5010370;28;20051;-80
2022/06/20 09:59:15;;;;;;;130.55;118.75;;;17.60;72.70;;;;;;5010930;28;20054;-80
2022/06/20 10:01:48;;;;;;;134.10;121.32;;;17.60;74.10;;;;;;5011460;28;20508;-80
2022/06/20 10:04:22;;;;;;;135.93;124.60;;;17.60;72.90;;;;;;5010995;28;20130;-81
2022/06/20 10:07:00;;;;;;;129.02;118.25;;;17.60;72.90;;;;;;5010816;28;20050;-81
2022/06/20 10:09:36;;;;;;;133.98;122.05;;;17.60;72.40;;;;;;5010978;28;20113;-80
2022/06/20 10:12:13;;;;;;;141.80;130.10;;;17.70;72.50;;;;;;5011400;28;20058;-80
2022/06/20 10:14:55;;;;;;;131.32;120.05;;;17.70;72.20;;;;;;5010914;28;20055;-80
2022/06/20 10:17:31;;;;;;;133.30;121.82;;;17.70;73.00;;;;;;5010739;28;20113;-80
2022/06/20 10:20:09;;;;;;;132.23;121.03;;;17.70;72.10;;;;;;4990685;28;20047;-80
2022/06/20 10:22:44;;;;;;;136.60;125.28;;;17.70;72.70;;;;;;4991453;28;20111;-80
2022/06/20 10:25:34;;;;;;;132.68;121.65;;;17.70;73.50;;;;;;4976076;28;20534;-81
2022/06/20 10:28:12;;;;;;;132.48;121.18;;;17.80;73.00;;;;;;4994710;28;20102;-81
2022/06/20 10:30:48;;;;;;;137.23;125.65;;;17.80;73.20;;;;;;4994439;28;20055;-81
2022/06/20 10:33:25;;;;;;;;;;;17.80;74.10;;;;;;4995466;28;20509;-80
2022/06/20 10:35:59;;;;;;;130.07;118.53;;;17.80;74.70;;;;;;4995213;28;19985;-81
2022/06/20 10:38:38;;;;;;;133.52;122.38;;;17.90;73.90;;;;;;4994190;28;20540;-81
2022/06/20 10:41:08;;;;;;;142.95;131.38;;;17.90;73.10;;;;;;4994698;28;20058;-81
2022/06/20 10:43:48;;;;;;;139.38;127.97;;;17.90;72.50;;;;;;4994741;28;20055;-80
2022/06/20 10:46:26;;;;;;;136.65;124.93;;;17.90;72.60;;;;;;4978163;28;20465;-81
2022/06/20 10:49:06;;;;;;;132.38;120.88;;;17.90;73.20;;;;;;4994641;28;20050;-81
2022/06/20 10:51:41;;;;;;;131.18;119.72;;;18.00;73.00;;;;;;4978390;28;20129;-81
2022/06/20 10:54:21;;;;;;;130.07;118.50;;;18.00;73.60;;;;;;4994630;28;20062;-81
2022/06/20 10:56:56;;;;;;;131.20;119.50;;;18.00;72.50;;;;;;4977716;28;20051;-81
2022/06/20 10:59:36;;;;;;;132.38;120.85;;;18.10;71.20;;;;;;4977753;28;20619;-81
2022/06/20 11:02:19;;;;;;;128.57;117.25;;;18.10;71.70;;;;;;4994255;28;20473;-81
2022/06/20 11:04:56;;;;;;;133.40;122.00;;;18.10;71.90;;;;;;4994073;28;20113;-81
2022/06/20 11:07:33;;;;;;;138.55;125.45;;;18.10;71.70;;;;;;4993631;28;20093;-80
2022/06/20 11:10:08;;;;;;;132.40;121.10;;;18.10;71.40;;;;;;4994182;28;20109;-80
2022/06/20 11:12:53;;;;;;;131.43;119.82;;;18.20;72.00;;;;;;4994016;28;20547;-80
2022/06/20 11:15:30;;;;;;;130.90;119.65;;;18.20;71.60;;;;;;4994521;28;20090;-80
2022/06/20 11:18:07;;;;;;;133.93;122.15;;;18.30;69.70;;;;;;4977643;28;20051;-81
2022/06/20 11:20:40;;;;;;;129.77;118.38;;;18.40;67.60;;;;;;4993633;28;20055;-81
2022/06/20 11:23:16;;;;;;;131.25;119.65;;;18.30;67.40;;;;;;4993736;28;20062;-81
2022/06/20 11:25:53;;;;;;;132.10;120.13;;;18.30;68.60;;;;;;4993466;28;20054;-81
2022/06/20 11:28:39;;;;;;;134.07;122.22;;;18.40;68.40;;;;;;4993327;28;20075;-81
2022/06/20 11:31:13;;;;;;;129.32;117.93;;;18.30;69.10;;;;;;4977110;28;20442;-81
2022/06/20 11:34:10;;;;;;;135.97;124.60;;;18.40;69.20;;;;;;4993039;28;20102;-80
2022/06/20 11:36:54;;;;;;;134.90;123.47;;;18.30;69.00;;;;;;4993171;28;20306;-81
2022/06/20 11:39:34;;;;;;;133.35;122.13;;;18.30;68.80;;;;;;4976888;28;20054;-82
2022/06/20 11:42:12;;;;;;;130.43;119.28;;;18.40;67.60;;;;;;4993927;28;20534;-81
2022/06/20 11:45:01;;;;;;;129.55;118.35;;;18.40;67.50;;;;;;4993005;28;20510;-81
2022/06/20 11:47:49;;;;;;;128.27;117.30;;;18.50;66.00;;;;;;4977664;28;20102;-80
2022/06/20 11:50:36;;;;;;;134.93;123.35;;;18.60;67.30;;;;;;4979981;28;20050;-81
2022/06/20 11:53:13;;;;;;;131.88;120.55;;;18.60;67.00;;;;;;4977039;28;20149;-81
2022/06/20 11:55:47;;;;;;;133.98;122.50;;;18.60;68.50;;;;;;4993165;28;20051;-81
2022/06/20 11:58:21;;;;;;;142.30;130.50;;;18.70;69.50;;;;;;4976635;28;20125;-81
2022/06/20 12:00:53;;;;;;;134.13;123.13;;;18.70;67.90;;;;;;4993422;28;20097;-81
2022/06/20 12:03:30;;;;;;;130.60;118.95;;;18.80;67.70;;;;;;4993125;28;20138;-80
2022/06/20 12:06:05;;;;;;;134.02;121.60;;;18.90;68.10;;;;;;4993270;28;20051;-81
2022/06/20 12:08:44;;;;;;;134.30;122.82;;;18.90;69.10;;;;;;4976339;28;20477;-80
2022/06/20 12:11:18;;;;;;;139.95;128.52;;;19.00;69.00;;;;;;4992913;28;20054;-80
2022/06/20 12:13:57;;;;;;;138.93;127.25;;;19.00;67.70;;;;;;4992586;28;20110;-80
2022/06/20 12:16:36;;;;;;;134.02;122.88;;;19.00;67.80;;;;;;5009402;28;20053;-80
2022/06/20 12:24:57;;;;;;;134.90;123.85;;;19.10;69.30;;;;;;5011201;28;20054;-80
2022/06/20 12:27:24;;;;;;;138.20;126.82;;;19.20;69.40;;;;;;5024330;28;20125;-77
2022/06/20 12:29:51;;;;;;;132.52;121.13;;;19.30;69.80;;;;;;5011321;28;20093;-81
2022/06/20 12:32:21;;;;;;;136.50;125.30;;;19.30;67.40;;;;;;5010923;28;20062;-82
2022/06/20 12:34:55;;;;;;;135.93;125.03;;;19.40;68.40;;;;;;5008890;28;20065;-85
2022/06/20 12:37:30;;;;;;;135.90;124.78;;;19.40;68.40;;;;;;5021091;28;20818;-81
2022/06/20 12:40:01;;;;;;;130.25;119.15;;;19.40;68.50;;;;;;4993841;28;20042;-82
2022/06/20 12:42:42;;;;;;;127.03;116.25;;;19.50;67.40;;;;;;4995981;28;20061;-83
2022/06/20 12:45:32;;;;;;;130.68;119.22;;;19.60;67.20;;;;;;4996016;28;20552;-84
2022/06/20 12:48:16;;;;;;;131.27;120.07;;;19.60;67.20;;;;;;4990473;28;20051;-84
2022/06/20 12:50:49;;;;;;;130.00;118.97;;;19.60;66.10;;;;;;5013891;28;20047;-91
2022/06/20 12:53:40;;;;;;;127.67;116.73;;;19.60;66.50;;;;;;4999996;28;20038;-84
2022/06/20 12:56:20;;;;;;;135.88;124.78;;;19.50;66.10;;;;;;4997324;28;20061;-87
2022/06/20 12:59:14;;;;;;;132.93;122.13;;;19.50;66.80;;;;;;5006792;28;20624;-87